createdAt,value
2023-10-16T04:29:27.302Z,65.58
2023-10-16T04:35:53.555Z,65.54
2023-10-16T04:42:06.153Z,65.68
2023-10-16T04:54:15.326Z,65.71
2023-10-16T05:00:01.203Z,65.56
2023-10-16T05:02:41.771Z,65.54
2023-10-16T05:05:27.889Z,65.73
2023-10-16T05:08:03.557Z,65.58
2023-10-16T05:10:49.789Z,65.44
2023-10-16T05:13:40.859Z,65.47
2023-10-16T05:16:27.044Z,65.45
2023-10-16T05:19:04.593Z,65.36
2023-10-16T05:21:53.340Z,65.02
2023-10-16T05:24:42.662Z,64.96
2023-10-16T05:27:28.864Z,65.14
2023-10-16T05:30:14.710Z,65.29
2023-10-16T05:33:00.805Z,65.25
2023-10-16T05:35:46.790Z,65.40
2023-10-16T05:38:32.851Z,65.50
2023-10-16T05:41:26.535Z,65.67
2023-10-16T05:44:12.706Z,65.62
2023-10-16T05:46:59.324Z,65.67
2023-10-16T05:49:45.542Z,65.56
2023-10-16T05:52:32.456Z,65.52
2023-10-16T05:55:18.770Z,65.72
2023-10-16T05:58:06.080Z,65.57
2023-10-16T06:00:52.766Z,65.41
2023-10-16T06:03:39.227Z,65.34
2023-10-16T06:06:25.526Z,65.56
2023-10-16T06:09:11.593Z,65.60
2023-10-16T06:11:57.632Z,65.45
2023-10-16T06:14:25.269Z,65.28
2023-10-16T06:16:54.832Z,65.23
2023-10-16T06:19:24.611Z,65.21
2023-10-16T06:21:56.880Z,65.17
2023-10-16T06:24:46.289Z,65.09
2023-10-16T06:27:21.580Z,64.95
2023-10-16T06:29:53.819Z,64.96
2023-10-16T06:32:27.490Z,64.75
2023-10-16T06:35:04.038Z,64.73
2023-10-16T06:37:39.770Z,64.64
2023-10-16T06:40:17.841Z,64.67
2023-10-16T06:42:47.714Z,64.71
2023-10-16T06:45:24.181Z,64.59
2023-10-16T06:47:56.219Z,64.47
2023-10-16T06:50:26.644Z,64.63
2023-10-16T06:52:57.339Z,64.58
2023-10-16T06:55:25.270Z,64.53
2023-10-16T06:57:53.477Z,64.42
2023-10-16T07:00:28.413Z,64.38
2023-10-16T07:02:58.706Z,64.41
2023-10-16T07:05:48.570Z,64.30
2023-10-16T07:08:19.000Z,64.56
2023-10-16T07:10:52.411Z,64.86
2023-10-16T07:13:32.267Z,64.96
2023-10-16T07:16:02.483Z,64.94
2023-10-16T07:18:34.822Z,64.92
2023-10-16T07:21:07.500Z,65.23
2023-10-16T07:23:37.499Z,65.39
2023-10-16T07:26:09.248Z,65.55
2023-10-16T07:28:39.430Z,65.88
2023-10-16T07:31:11.696Z,65.58
2023-10-16T07:33:42.734Z,65.88
2023-10-16T07:36:14.782Z,65.97
2023-10-16T07:38:52.088Z,65.82
2023-10-16T07:41:20.502Z,65.86
2023-10-16T07:43:48.290Z,66.04
2023-10-16T07:46:29.686Z,66.10
2023-10-16T07:49:04.488Z,66.08
2023-10-16T07:51:32.479Z,65.94
2023-10-16T07:54:01.614Z,66.08
2023-10-16T07:56:33.797Z,65.94
2023-10-16T07:59:19.768Z,66.04
2023-10-16T08:01:54.044Z,66.11
2023-10-16T08:04:26.226Z,66.18
2023-10-16T08:07:06.445Z,66.30
2023-10-16T08:09:41.255Z,66.41
2023-10-16T08:12:39.239Z,66.14
2023-10-16T08:15:23.209Z,66.34
2023-10-16T08:17:53.882Z,66.33
2023-10-16T08:20:47.320Z,66.49
2023-10-16T08:23:14.989Z,66.67
2023-10-16T08:25:45.268Z,66.84
2023-10-16T08:28:22.979Z,66.92
2023-10-16T08:30:52.114Z,67.09
2023-10-16T08:33:30.375Z,67.04
2023-10-16T08:35:59.681Z,67.14
2023-10-16T08:38:27.720Z,67.11
2023-10-16T08:40:59.549Z,67.01
2023-10-16T08:43:54.905Z,66.98
2023-10-16T08:46:58.033Z,66.90
2023-10-16T08:49:26.791Z,67.13
2023-10-16T08:52:12.472Z,67.11
2023-10-16T08:54:49.216Z,66.94
2023-10-16T08:57:22.032Z,66.97
2023-10-16T08:59:51.670Z,67.13
2023-10-16T09:02:26.364Z,67.01
2023-10-16T09:04:58.198Z,67.31
2023-10-16T09:07:26.758Z,67.27
2023-10-16T09:09:57.300Z,67.32
2023-10-16T09:12:28.374Z,67.42
2023-10-16T09:15:07.610Z,67.52
2023-10-16T09:17:38.496Z,67.57
2023-10-16T09:20:14.806Z,67.70
2023-10-16T09:22:48.218Z,67.68
2023-10-16T09:25:36.350Z,67.62
2023-10-16T09:28:07.307Z,67.58
2023-10-16T09:30:35.829Z,67.72
2023-10-16T09:33:07.922Z,67.66
2023-10-16T09:35:36.010Z,67.70
2023-10-16T09:38:41.557Z,67.71
2023-10-16T09:41:28.574Z,67.85
2023-10-16T09:44:08.679Z,67.88
2023-10-16T09:46:48.320Z,67.67
2023-10-16T09:49:22.597Z,67.63
2023-10-16T09:52:07.313Z,67.70
2023-10-16T09:54:37.509Z,67.60
2023-10-16T09:57:09.500Z,67.92
2023-10-16T09:59:41.537Z,68.04
2023-10-16T10:02:20.893Z,68.03
2023-10-16T10:05:01.283Z,67.79
2023-10-16T10:07:37.956Z,67.93
2023-10-16T10:10:25.317Z,67.88
2023-10-16T10:12:59.338Z,67.82
2023-10-16T10:15:36.627Z,67.79
2023-10-16T10:18:24.459Z,67.82
2023-10-16T10:21:02.305Z,67.71
2023-10-16T10:23:51.791Z,67.64
2023-10-16T10:26:23.556Z,67.77
2023-10-16T10:29:10.934Z,67.90
2023-10-16T10:31:44.234Z,67.96
2023-10-16T10:34:24.779Z,68.13
2023-10-16T10:36:53.046Z,67.97
2023-10-16T10:39:23.603Z,68.01
2023-10-16T10:42:05.824Z,68.31
2023-10-16T10:44:40.520Z,68.08
2023-10-16T10:47:36.525Z,68.25
2023-10-16T10:50:14.152Z,68.32
2023-10-16T10:52:45.152Z,68.37
2023-10-16T10:55:19.618Z,68.20
2023-10-16T10:57:57.015Z,68.28
2023-10-16T11:00:28.607Z,68.20
2023-10-16T11:03:02.549Z,68.34
2023-10-16T11:05:34.695Z,68.35
2023-10-16T11:08:11.964Z,68.37
2023-10-16T11:10:46.761Z,68.54
2023-10-16T11:13:19.158Z,68.36
2023-10-16T11:15:48.941Z,68.53
2023-10-16T11:18:22.858Z,68.59
2023-10-16T11:20:54.892Z,68.43
2023-10-16T11:23:27.279Z,68.36
2023-10-16T11:25:56.121Z,68.63
2023-10-16T11:28:30.019Z,68.74
2023-10-16T11:31:02.104Z,68.65
2023-10-16T11:33:58.207Z,68.84
2023-10-16T11:36:28.911Z,68.76
2023-10-16T11:39:05.358Z,68.67
2023-10-16T11:41:34.409Z,68.78
2023-10-16T11:44:14.974Z,68.76
2023-10-16T11:46:47.737Z,68.89
2023-10-16T11:49:23.824Z,69.03
2023-10-16T11:51:59.780Z,68.83
2023-10-16T11:54:30.662Z,68.88
2023-10-16T11:57:01.243Z,69.01
2023-10-16T11:59:31.671Z,69.19
2023-10-16T12:02:12.481Z,68.96
2023-10-16T12:04:42.769Z,69.20
2023-10-16T12:07:15.230Z,69.05
2023-10-16T12:09:49.168Z,69.17
2023-10-16T12:12:26.197Z,69.14
2023-10-16T12:14:56.105Z,69.11
2023-10-16T12:17:25.866Z,68.92
2023-10-16T12:19:54.379Z,69.02
2023-10-16T12:22:32.888Z,68.90
2023-10-16T12:25:42.262Z,68.80
2023-10-16T12:29:15.048Z,68.81
2023-10-16T12:35:51.299Z,68.91
2023-10-16T12:39:45.314Z,68.71
2023-10-16T12:42:37.459Z,68.96
2023-10-16T12:46:56.574Z,68.84
2023-10-16T12:50:01.155Z,69.07
2023-10-16T12:53:36.573Z,69.08
2023-10-16T12:56:57.794Z,68.91
2023-10-16T13:00:20.171Z,68.84
2023-10-16T13:14:56.218Z,68.81
2023-10-16T13:17:26.246Z,69.23
2023-10-16T13:19:54.715Z,68.98
2023-10-16T13:22:23.768Z,68.95
2023-10-16T13:24:51.719Z,68.98
2023-10-16T13:27:23.159Z,69.04
2023-10-16T13:29:53.118Z,68.98
2023-10-16T13:32:21.278Z,68.86
2023-10-16T13:34:49.385Z,68.97
2023-10-16T13:37:19.920Z,69.35
2023-10-16T13:39:47.912Z,69.26
2023-10-16T13:42:15.987Z,69.65
2023-10-16T13:44:44.008Z,69.92
2023-10-16T13:47:11.948Z,70.13
2023-10-16T13:49:39.714Z,70.33
2023-10-16T13:52:15.721Z,70.37
2023-10-16T13:54:43.733Z,70.37
2023-10-16T13:57:13.199Z,70.57
2023-10-16T13:59:44.068Z,70.64
2023-10-16T14:02:28.122Z,70.89
2023-10-16T14:04:58.702Z,70.92
2023-10-16T14:07:27.446Z,71.03
2023-10-16T14:09:58.007Z,71.23
2023-10-16T14:12:27.210Z,71.26
2023-10-16T14:14:55.117Z,71.30
2023-10-16T14:17:33.336Z,71.23
2023-10-16T14:23:30.114Z,71.79
2023-10-16T14:26:35.499Z,71.82
2023-10-16T14:29:08.444Z,72.02
2023-10-16T14:31:37.675Z,72.13
2023-10-16T14:34:07.473Z,72.47
2023-10-16T14:36:36.070Z,72.66
2023-10-16T14:39:13.405Z,72.72
2023-10-16T14:41:43.162Z,72.79
2023-10-16T14:47:26.364Z,73.13
2023-10-16T14:52:38.398Z,73.09
2023-10-16T15:04:35.143Z,72.82
2023-10-16T15:07:43.241Z,72.87
2023-10-16T15:10:14.178Z,72.94
2023-10-16T15:12:48.691Z,72.83
2023-10-16T15:15:19.261Z,72.90
2023-10-16T15:17:49.802Z,73.22
2023-10-16T15:20:18.134Z,73.36
2023-10-16T15:22:45.821Z,73.73
2023-10-16T15:25:14.658Z,74.04
2023-10-16T15:27:44.547Z,74.42
2023-10-16T15:30:12.323Z,74.45
2023-10-16T15:32:45.290Z,74.42
2023-10-16T15:35:15.330Z,74.29
2023-10-16T15:37:43.023Z,74.25
2023-10-16T15:40:21.136Z,74.18
2023-10-16T15:42:53.979Z,74.46
2023-10-16T15:45:21.567Z,74.46
2023-10-16T15:47:49.531Z,74.65
2023-10-16T15:50:17.251Z,74.83
2023-10-16T15:52:44.917Z,75.55
2023-10-16T15:55:18.563Z,75.36
2023-10-16T15:57:50.520Z,75.27
2023-10-16T16:00:18.660Z,75.07
2023-10-16T16:02:46.418Z,75.11
2023-10-16T16:05:14.219Z,75.05
2023-10-16T16:07:44.438Z,75.00
2023-10-16T16:10:12.240Z,74.97
2023-10-16T16:12:41.547Z,74.86
2023-10-16T16:15:09.975Z,74.84
2023-10-16T16:17:38.427Z,74.82
2023-10-16T16:20:06.815Z,74.84
2023-10-16T16:22:34.319Z,74.88
2023-10-16T16:25:03.229Z,75.08
2023-10-16T16:27:31.520Z,75.18
2023-10-16T16:30:00.070Z,75.33
2023-10-16T16:32:27.793Z,75.39
2023-10-16T16:34:55.589Z,75.34
2023-10-16T16:37:23.046Z,75.25
2023-10-16T16:39:50.841Z,75.32
2023-10-16T16:42:18.423Z,75.29
2023-10-16T16:44:46.623Z,75.52
2023-10-16T16:47:14.201Z,75.35
2023-10-16T16:49:42.097Z,75.46
2023-10-16T16:52:09.794Z,75.54
2023-10-16T16:54:37.425Z,75.28
2023-10-16T16:57:05.437Z,75.43
2023-10-16T16:59:32.831Z,75.51
2023-10-16T17:02:01.991Z,75.45
2023-10-16T17:04:32.715Z,75.49
2023-10-16T17:07:05.611Z,75.42
2023-10-16T17:09:34.474Z,75.45
2023-10-16T17:12:02.149Z,75.32
2023-10-16T17:14:30.307Z,75.64
2023-10-16T17:16:58.421Z,75.48
2023-10-16T17:19:26.550Z,75.29
2023-10-16T17:21:54.012Z,75.42
2023-10-16T17:24:23.648Z,75.34
2023-10-16T17:26:53.563Z,75.50
2023-10-16T17:29:23.838Z,75.40
2023-10-16T17:31:54.193Z,75.14
2023-10-16T17:34:25.816Z,75.01
2023-10-16T17:36:54.751Z,75.10
2023-10-16T17:39:22.810Z,75.32
2023-10-16T17:41:51.592Z,75.15
2023-10-16T17:44:19.338Z,75.02
2023-10-16T17:46:48.179Z,75.15
2023-10-16T17:49:15.887Z,75.23
2023-10-16T17:51:43.521Z,75.03
2023-10-16T17:54:13.164Z,75.11
2023-10-16T17:56:41.383Z,74.80
2023-10-16T17:59:12.500Z,74.78
2023-10-16T18:01:42.688Z,74.75
2023-10-16T18:04:10.598Z,74.53
2023-10-16T18:06:40.149Z,74.41
2023-10-16T18:09:10.775Z,74.75
2023-10-16T18:11:41.856Z,74.42
2023-10-16T18:14:11.010Z,74.33
2023-10-16T18:16:40.493Z,74.38
2023-10-16T18:19:08.489Z,74.24
2023-10-16T18:21:37.468Z,74.21
2023-10-16T18:24:11.661Z,74.20
2023-10-16T18:29:51.708Z,74.00
2023-10-16T18:32:22.270Z,73.93
2023-10-16T18:34:50.224Z,74.06
2023-10-16T18:37:18.029Z,73.94
2023-10-16T18:39:46.136Z,73.94
2023-10-16T18:42:16.571Z,73.71
2023-10-16T18:44:44.687Z,73.77
2023-10-16T18:47:14.335Z,73.71
2023-10-16T18:49:45.693Z,73.83
2023-10-16T18:52:13.606Z,73.44
2023-10-16T18:54:41.266Z,73.26
2023-10-16T18:57:10.928Z,73.45
2023-10-16T18:59:39.568Z,73.56
2023-10-16T19:02:07.621Z,73.19
2023-10-16T19:04:35.285Z,73.15
2023-10-16T19:07:04.520Z,73.34
2023-10-16T19:09:33.798Z,73.32
2023-10-16T19:12:05.219Z,73.31
2023-10-16T19:14:34.526Z,73.38
2023-10-16T19:17:02.157Z,73.09
2023-10-16T19:19:29.948Z,73.26
2023-10-16T19:21:57.590Z,73.34
2023-10-16T19:24:25.329Z,73.30
2023-10-16T19:26:54.049Z,73.09
2023-10-16T19:29:21.580Z,73.30
2023-10-16T19:31:49.217Z,73.18
2023-10-16T19:34:18.376Z,72.92
2023-10-16T19:36:47.410Z,73.01
2023-10-16T19:39:15.723Z,72.67
2023-10-16T19:41:53.425Z,73.05
2023-10-16T19:44:22.192Z,73.27
2023-10-16T19:46:49.895Z,73.09
2023-10-16T19:49:17.544Z,72.96
2023-10-16T19:51:45.834Z,72.77
2023-10-16T19:54:14.853Z,72.78
2023-10-16T19:56:43.893Z,72.96
2023-10-16T19:59:12.862Z,72.77
2023-10-16T20:01:40.802Z,72.76
2023-10-16T20:04:08.869Z,72.88
2023-10-16T20:06:37.727Z,72.37
2023-10-16T20:09:07.655Z,72.41
2023-10-16T20:11:35.967Z,72.43
2023-10-16T20:14:03.777Z,72.63
2023-10-16T20:16:31.576Z,72.17
2023-10-16T20:18:59.352Z,72.33
2023-10-16T20:21:27.045Z,72.46
2023-10-16T20:23:55.568Z,72.34
2023-10-16T20:26:25.382Z,72.40
2023-10-16T20:28:54.591Z,72.09
2023-10-16T20:31:25.953Z,72.13
2023-10-16T20:33:53.750Z,71.88
2023-10-16T20:36:22.265Z,72.13
2023-10-16T20:38:51.792Z,72.11
2023-10-16T20:41:19.989Z,72.21
2023-10-16T20:43:47.455Z,72.07
2023-10-16T20:46:15.801Z,72.20
2023-10-16T20:48:43.477Z,72.21
2023-10-16T20:51:12.598Z,72.23
2023-10-16T20:53:40.208Z,71.96
2023-10-16T20:56:10.539Z,71.94
2023-10-16T20:58:38.553Z,72.04
2023-10-16T21:01:10.802Z,72.12
2023-10-16T21:03:38.637Z,72.18
2023-10-16T21:06:06.481Z,72.12
2023-10-16T21:08:34.102Z,72.04
2023-10-16T21:11:01.722Z,71.96
2023-10-16T21:13:29.943Z,72.11
2023-10-16T21:15:57.688Z,72.11
2023-10-16T21:18:27.151Z,72.04
2023-10-16T21:20:58.825Z,71.94
2023-10-16T21:23:26.348Z,71.93
2023-10-16T21:25:54.197Z,71.42
2023-10-16T21:28:21.823Z,71.51
2023-10-16T21:30:58.054Z,71.24
2023-10-16T21:33:26.657Z,70.74
2023-10-16T21:36:04.949Z,70.67
2023-10-16T21:38:35.633Z,70.35
2023-10-16T21:41:03.842Z,69.63
2023-10-16T21:43:31.606Z,69.04
2023-10-16T21:45:59.565Z,69.21
2023-10-16T21:48:28.205Z,69.22
2023-10-16T21:50:56.035Z,68.83
2023-10-16T21:53:24.075Z,68.23
2023-10-16T21:55:52.697Z,68.20
2023-10-16T21:58:20.512Z,67.96
2023-10-16T22:01:00.485Z,67.88
2023-10-16T22:03:28.734Z,67.48
2023-10-16T22:05:56.505Z,67.51
2023-10-16T22:08:24.031Z,67.31
2023-10-16T22:10:51.876Z,67.38
2023-10-16T22:13:20.318Z,67.42
2023-10-16T22:15:48.020Z,67.15
2023-10-16T22:18:16.044Z,66.96
2023-10-16T22:20:45.458Z,67.11
2023-10-16T22:23:15.812Z,67.12
2023-10-16T22:25:43.448Z,66.48
2023-10-16T22:28:12.357Z,66.75
2023-10-16T22:30:40.087Z,66.37
2023-10-16T22:33:08.197Z,66.22
2023-10-16T22:35:42.803Z,66.17
2023-10-16T22:38:11.464Z,66.16
2023-10-16T22:40:39.019Z,66.27
2023-10-16T22:43:07.770Z,66.37
2023-10-16T22:45:35.549Z,66.02
2023-10-16T22:48:03.547Z,65.97
2023-10-16T22:50:31.458Z,65.66
2023-10-16T22:52:59.149Z,65.83
2023-10-16T22:55:27.984Z,65.72
2023-10-16T22:57:56.741Z,65.81
2023-10-16T23:00:24.482Z,65.86
2023-10-16T23:02:53.259Z,65.67
2023-10-16T23:05:20.984Z,65.63
2023-10-16T23:07:51.101Z,65.50
2023-10-16T23:10:22.199Z,65.47
2023-10-16T23:12:53.249Z,65.65
2023-10-16T23:15:31.151Z,65.49
2023-10-16T23:17:59.062Z,65.73
2023-10-16T23:20:26.819Z,65.41
2023-10-16T23:22:55.087Z,65.16
2023-10-16T23:25:23.655Z,65.29
2023-10-16T23:27:52.867Z,65.40
2023-10-16T23:30:23.443Z,65.23
2023-10-16T23:32:51.825Z,65.09
2023-10-16T23:35:23.471Z,64.94
2023-10-16T23:37:52.926Z,64.82
2023-10-16T23:40:46.638Z,64.76
2023-10-16T23:43:16.937Z,64.91
2023-10-16T23:45:47.209Z,65.03
2023-10-16T23:48:21.997Z,65.05
2023-10-16T23:50:52.159Z,65.15
2023-10-16T23:53:32.736Z,65.11
2023-10-16T23:56:11.237Z,64.98
2023-10-16T23:58:43.967Z,64.87
